Mandai, Republic of Indonesia

9:43 PM WITA on May 25, 2015 (GMT +0800)
Hasanuddin | | Change Station
CLOSE
Current Station
Airport
Location: Makassar,
Elevation: 46 ft
Nearby Weather Stations

Elev 46 ft 5.06 °S, 119.55 °E | Updated 13 minutes ago

Partly Cloudy
Partly Cloudy
81 °F
Feels Like 88 °F
N
1
Wind Variable Wind from SSE

Today
High -- | Low -- °F
--% Chance of Precip.
Yesterday
High -- | Low -- °F
Precip. -- in
6:02 AM 5:54 PM
Waxing Crescent, 48% visible
Pressure 29.89 in
Visibility 5.0 miles
Clouds Few 2000 ft
Heat Index 88 °F
Dew Point 79 °F
Humidity 94%
Rainfall 0.00 in
Snow Depth Not available.
UV 0 out of 12
Pollen Not available.
Air Quality Not available.
Flu Activity Not available.
METAR WAAA 251330Z 15001KT 8000 FEW020 27/26 Q1012 NOSIG

More Conditions Fewer Conditions

Pressure 29.89 in
Visibility 5.0 miles
Clouds Few 2000 ft
Heat Index 88 °F
Dew Point 79 °F
Humidity 94%
Rainfall 0.00 in
Snow Depth Not available.
UV 0 out of 12
Pollen Not available.
Air Quality Not available.
Flu Activity Not available.
METAR WAAA 251330Z 15001KT 8000 FEW020 27/26 Q1012 NOSIG

More Conditions Fewer Conditions

10-Day Weather Forecast

Almanac

Astronomy

May. 25, 2015 Rise Set
Actual Time
Civil Twilight
Nautical Twilight
Astronomical Twilight
Moon
Length of Visible Light
Length of Day
Tomorrow will be .
, % of the Moon is Illuminated

Today's Extremes

Country Highs Country Lows

Community

WunderPhotos

Upload Photos

1,824,009 photos uploaded!

WunderBlogs® & News

Nearby

Air Quality

  Air Quality AQ Index Pollutant
Not available.

Snow Depth

Station Depth Elevation

Earthquake Activity

City Distance Mag. Time & Date
Minimum magnitude displayed is 2.5.

Coastal Water Temperatures

Place Temperature

Stations

Nearby Weather Stations

Station Location Temp. Windchill Dew Point Humidity Wind Precip. Elev Updated Type